Main page
METAR-TAF:

METAR-TAF

Airports :

Seville Airport

Seville, Spain

latitude: 37-25N, longitude: 005-54W, elevation: 34 m

Current weather observation

The report was made 6 minutes ago, at 22:30 UTC
Wind 5 kt from the Northwest
Temperature 18°C
Humidity 45%
Pressure 1014 hPa
Visibility 10 km or more
no clouds below 1500 m and no cumulonimbus

METAR: LEZL 222230Z 31005KT CAVOK 18/06 Q1014 NOSIG

Time: 00:36 (22:36 UTC)

Forecast

The report was made 2 hours and 36 minutes ago, at 20:00 UTC
Forecast valid from 22 at 21 UTC to 23 at 21 UTC
Wind 3 kt from variable directions
Visibility 10 km or more
Few clouds at a height of 4000 ft
Becoming
from 23 at 00 UTC to 23 at 02 UTC
Wind 10 kt from the North/Northeast

TAF: LEZL 222000Z 2221/2321 VRB03KT 9999 FEW040 TX25/2315Z TN12/2306Z BECMG 2300/2302 03010KT

Weather observations and forecasts of more than 4000 airports (METAR and TAF reports).

The available stations are represented by yellow and red dots on the map.

Hover mouse over dot to see the name of the station.

Then click to see weather observations and forecasts.

To change the map : click on the green buttons with a black cross to zoom in, on the green button with a dash to zoom out, or on the green arrows for adjacent maps.


METAR-TAF: